Time;durP1;ratioP1;P1;durP2;ratioP2;P2;SDS_P1;SDS_P2;PMS_P1;PMS_P2;Temp;Humidity;BMP_temperature;BMP_pressure;BME280_temperature;BME280_humidity;BME280_pressure;Samples;Min_cycle;Max_cycle;Signal;HPM_P1;HPM_P2
2023/04/07 00:00:04;;;;;;;17.43;14.23;;;;;;;9.57;68.50;100815.94;688517;28;1061;-83
2023/04/07 00:00:32;;;;;;;18.63;14.82;;;;;;;9.57;68.36;100816.81;688559;28;910;-83
2023/04/07 00:00:52;;;;;;;18.77;15.17;;;;;;;9.56;68.42;100811.56;685126;28;1283;-83
2023/04/07 00:01:13;;;;;;;19.02;15.00;;;;;;;9.59;68.74;100819.50;683061;28;1304;-83
2023/04/07 00:01:33;;;;;;;19.17;14.63;;;;;;;9.58;68.44;100815.97;683156;29;1602;-83
2023/04/07 00:01:54;;;;;;;19.37;14.43;;;;;;;9.59;68.23;100815.13;683180;29;1061;-83
2023/04/07 00:02:15;;;;;;;18.40;14.32;;;;;;;9.65;68.72;100824.00;685691;28;1140;-83
2023/04/07 00:02:36;;;;;;;17.45;14.52;;;;;;;9.55;68.68;100813.28;688592;28;724;-83
2023/04/07 00:02:57;;;;;;;16.95;14.35;;;;;;;9.56;68.41;100821.97;680316;29;1106;-83
2023/04/07 00:03:18;;;;;;;16.85;13.80;;;;;;;9.61;68.51;100825.63;680497;29;985;-83
2023/04/07 00:03:40;;;;;;;16.75;13.63;;;;;;;9.60;68.31;100824.72;683133;29;1093;-84
2023/04/07 00:04:00;;;;;;;16.95;14.02;;;;;;;9.52;68.65;100820.97;682643;29;1267;-83
2023/04/07 00:04:21;;;;;;;17.23;14.30;;;;;;;9.56;68.54;100825.47;682998;29;1206;-83
2023/04/07 00:04:42;;;;;;;17.65;14.20;;;;;;;9.49;68.65;100810.47;686182;28;1505;-83
2023/04/07 00:05:03;;;;;;;16.98;13.55;;;;;;;9.51;68.78;100811.41;683059;29;1249;-83
2023/04/07 00:05:23;;;;;;;17.47;14.07;;;;;;;9.49;68.96;100809.56;683046;29;1281;-84
2023/04/07 00:05:44;;;;;;;17.43;14.30;;;;;;;9.59;68.91;100828.16;688235;28;1185;-84
2023/04/07 00:06:05;;;;;;;18.15;14.80;;;;;;;9.61;68.54;100830.84;685689;28;1188;-83
2023/04/07 00:06:26;;;;;;;19.38;15.18;;;;;;;9.58;68.68;100821.19;685630;28;1296;-83
2023/04/07 00:06:46;;;;;;;18.77;15.00;;;;;;;9.57;68.43;100815.94;680347;29;1179;-82
2023/04/07 00:07:07;;;;;;;17.90;14.73;;;;;;;9.56;68.67;100816.75;685685;28;1099;-83
2023/04/07 00:07:28;;;;;;;17.90;14.80;;;;;;;9.67;68.78;100824.94;685708;28;1166;-83
2023/04/07 00:07:48;;;;;;;18.00;14.80;;;;;;;9.67;68.76;100819.72;685556;28;1256;-83
2023/04/07 00:08:09;;;;;;;17.83;14.70;;;;;;;9.60;68.49;100819.50;685810;28;972;-83
2023/04/07 00:08:30;;;;;;;16.58;14.30;;;;;;;9.59;68.57;100815.13;688479;28;756;-83
2023/04/07 00:08:50;;;;;;;17.63;14.43;;;;;;;9.68;68.55;100821.50;688281;28;954;-83
2023/04/07 00:09:11;;;;;;;18.52;14.90;;;;;;;9.62;68.32;100822.19;683048;29;1237;-83
2023/04/07 00:09:32;;;;;;;17.60;14.60;;;;;;;9.60;68.56;100808.22;680499;29;1186;-83
2023/04/07 00:09:53;;;;;;;16.93;14.53;;;;;;;9.63;68.55;100815.25;688243;28;1309;-83
2023/04/07 00:10:13;;;;;;;15.93;14.00;;;;;;;9.59;68.15;100807.31;688487;28;1201;-82
2023/04/07 00:10:34;;;;;;;15.35;13.70;;;;;;;9.70;68.50;100828.53;688474;28;1172;-83
2023/04/07 00:10:55;;;;;;;15.40;13.40;;;;;;;9.62;68.60;100810.84;685711;28;1096;-83
2023/04/07 00:11:15;;;;;;;16.53;13.83;;;;;;;9.59;68.52;100809.94;685735;28;1172;-83
2023/04/07 00:11:37;;;;;;;17.60;14.30;;;;;;;9.69;68.38;100829.38;685803;28;732;-83
2023/04/07 00:12:00;;;;;;;18.20;14.70;;;;;;;9.63;68.39;100812.66;682955;28;1188;-83
2023/04/07 00:12:21;;;;;;;17.45;14.60;;;;;;;9.68;68.54;100822.38;682969;29;1095;-83
2023/04/07 00:12:41;;;;;;;18.17;14.98;;;;;;;9.63;68.55;100816.13;685538;28;1348;-83
2023/04/07 00:13:02;;;;;;;18.17;15.00;;;;;;;9.66;68.42;100815.34;685644;28;1302;-83
2023/04/07 00:13:23;;;;;;;18.17;14.90;;;;;;;9.65;68.27;100818.78;685719;28;1250;-84
2023/04/07 00:13:43;;;;;;;17.85;14.70;;;;;;;9.62;68.56;100826.50;685511;28;1915;-83
2023/04/07 00:14:04;;;;;;;18.10;14.60;;;;;;;9.53;68.49;100801.91;680239;29;1121;-84
2023/04/07 00:14:25;;;;;;;18.50;14.60;;;;;;;9.56;68.71;100816.75;682820;29;1271;-84
2023/04/07 00:14:45;;;;;;;18.63;14.60;;;;;;;9.55;69.02;100821.09;682846;29;1307;-83
2023/04/07 00:15:06;;;;;;;17.40;14.02;;;;;;;9.49;69.01;100806.97;680374;29;1047;-83
2023/04/07 00:15:27;;;;;;;16.00;13.52;;;;;;;9.53;68.63;100816.69;683022;29;1446;-83
2023/04/07 00:15:48;;;;;;;15.53;13.30;;;;;;;9.58;68.94;100831.63;682979;29;1221;-83
2023/04/07 00:16:08;;;;;;;15.82;13.48;;;;;;;9.47;69.00;100812.16;682947;29;1157;-84
2023/04/07 00:16:29;;;;;;;16.45;13.68;;;;;;;9.46;68.69;100815.56;683080;29;1146;-83
2023/04/07 00:16:49;;;;;;;16.57;13.80;;;;;;;9.50;69.21;100817.44;680222;29;974;-83
2023/04/07 00:17:10;;;;;;;16.57;13.93;;;;;;;9.53;68.76;100814.94;677821;29;1097;-84
2023/04/07 00:17:30;;;;;;;17.45;14.52;;;;;;;9.54;68.97;100815.84;677762;29;1432;-83
2023/04/07 00:17:51;;;;;;;17.90;14.60;;;;;;;9.60;68.73;100824.72;680281;29;1182;-82
2023/04/07 00:18:12;;;;;;;17.98;14.60;;;;;;;9.54;68.64;100814.13;680284;29;1250;-83
2023/04/07 00:18:32;;;;;;;16.85;14.20;;;;;;;9.53;68.71;100807.13;683108;29;737;-83
2023/04/07 00:18:53;;;;;;;16.70;14.40;;;;;;;9.56;68.75;100807.25;680233;29;1168;-83
2023/04/07 00:19:13;;;;;;;17.67;14.35;;;;;;;9.65;68.72;100826.63;680461;29;1100;-83
2023/04/07 00:19:34;;;;;;;18.97;14.83;;;;;;;9.63;68.80;100821.34;683046;29;1039;-83
2023/04/07 00:19:55;;;;;;;18.30;14.48;;;;;;;9.63;68.60;100818.72;682960;29;1114;-83
2023/04/07 00:20:16;;;;;;;18.33;14.47;;;;;;;9.54;68.57;100808.91;683016;29;1139;-83
2023/04/07 00:20:36;;;;;;;17.70;14.00;;;;;;;9.57;68.57;100805.50;680475;29;1071;-83
2023/04/07 00:20:57;;;;;;;19.15;14.60;;;;;;;9.60;68.60;100819.50;680242;29;1113;-83
2023/04/07 00:21:17;;;;;;;18.33;14.40;;;;;;;9.58;68.68;100815.09;685710;28;1064;-83
2023/04/07 00:21:38;;;;;;;18.53;14.13;;;;;;;9.57;68.59;100802.91;683106;28;1351;-84
2023/04/07 00:21:59;;;;;;;18.00;13.80;;;;;;;9.65;68.73;100821.41;682968;29;1088;-83
2023/04/07 00:22:19;;;;;;;18.70;14.27;;;;;;;9.59;68.57;100812.53;683002;28;1045;-83
2023/04/07 00:22:40;;;;;;;18.00;14.20;;;;;;;9.58;68.33;100808.16;680340;29;1228;-82
2023/04/07 00:23:00;;;;;;;18.63;14.73;;;;;;;9.57;68.47;100809.00;683070;29;1303;-83
2023/04/07 00:23:21;;;;;;;17.60;14.63;;;;;;;9.66;68.47;100828.38;685677;28;1211;-83
2023/04/07 00:23:41;;;;;;;17.35;14.35;;;;;;;9.58;68.40;100812.47;685514;28;1145;-83
2023/04/07 00:24:02;;;;;;;17.77;14.18;;;;;;;9.51;68.86;100803.59;685710;28;1076;-83
2023/04/07 00:24:23;;;;;;;17.70;13.80;;;;;;;9.53;68.54;100814.06;682961;28;1338;-83
2023/04/07 00:24:43;;;;;;;17.42;14.18;;;;;;;9.46;68.78;100803.44;680247;29;1151;-83
2023/04/07 00:25:04;;;;;;;15.70;13.60;;;;;;;9.45;68.86;100803.38;683034;29;1151;-83
2023/04/07 00:25:25;;;;;;;15.88;13.75;;;;;;;9.54;68.98;100816.72;680410;29;1233;-83
2023/04/07 00:25:48;;;;;;;17.47;14.10;;;;;;;9.53;68.87;100822.75;680224;29;1190;-83
2023/04/07 00:26:08;;;;;;;17.38;14.30;;;;;;;9.44;68.79;100804.22;677885;29;1107;-83
2023/04/07 00:26:31;;;;;;;16.95;14.05;;;;;;;9.46;68.98;100811.25;685640;28;1253;-83
2023/04/07 00:26:52;;;;;;;15.68;13.60;;;;;;;9.49;68.81;100815.69;682898;29;1246;-83
2023/04/07 00:27:12;;;;;;;15.55;13.50;;;;;;;9.46;68.74;100806.03;682994;29;997;-83
2023/04/07 00:27:33;;;;;;;15.43;13.17;;;;;;;9.47;68.94;100801.72;680489;29;796;-83
2023/04/07 00:27:54;;;;;;;16.00;13.02;;;;;;;9.48;69.01;100806.09;680262;28;1256;-83
2023/04/07 00:28:14;;;;;;;16.70;13.40;;;;;;;9.50;68.88;100812.25;677860;29;1092;-83
2023/04/07 00:28:35;;;;;;;16.95;14.07;;;;;;;9.46;68.68;100805.16;683063;29;1296;-81
2023/04/07 00:28:57;;;;;;;17.57;14.40;;;;;;;9.54;68.61;100814.13;685555;28;1159;-83
2023/04/07 00:29:17;;;;;;;16.65;13.80;;;;;;;9.56;68.96;100820.25;682970;29;1024;-83
2023/04/07 00:29:38;;;;;;;17.33;13.87;;;;;;;9.49;68.77;100802.66;680462;29;1164;-83
2023/04/07 00:29:58;;;;;;;16.98;13.70;;;;;;;9.50;68.80;100807.03;680419;29;968;-83
2023/04/07 00:30:19;;;;;;;17.40;13.98;;;;;;;9.47;68.85;100801.72;680318;29;1122;-83
2023/04/07 00:30:40;;;;;;;18.50;13.90;;;;;;;9.48;68.65;100798.28;680284;29;1018;-83
2023/04/07 00:31:00;;;;;;;17.47;13.80;;;;;;;9.55;69.06;100809.78;682930;28;1099;-83
2023/04/07 00:31:21;;;;;;;18.00;14.40;;;;;;;9.49;68.91;100799.16;685667;28;1445;-83
2023/04/07 00:31:42;;;;;;;15.98;13.90;;;;;;;9.49;69.09;100800.06;685557;28;1209;-82
2023/04/07 00:32:02;;;;;;;16.30;13.73;;;;;;;9.50;69.08;100806.13;685752;28;1199;-83
2023/04/07 00:32:23;;;;;;;16.23;13.30;;;;;;;9.60;68.90;100819.50;685799;28;925;-83
2023/04/07 00:32:43;;;;;;;16.60;14.00;;;;;;;9.51;68.71;100800.13;688235;28;1164;-83
2023/04/07 00:33:04;;;;;;;17.40;14.23;;;;;;;9.54;68.65;100801.09;688360;28;1010;-83
2023/04/07 00:33:24;;;;;;;17.73;14.70;;;;;;;9.59;68.98;100822.97;685829;28;783;-83
2023/04/07 00:33:47;;;;;;;17.83;14.10;;;;;;;9.58;68.77;100810.78;682725;29;1907;-83
2023/04/07 00:34:07;;;;;;;17.48;14.25;;;;;;;9.51;68.53;100803.59;685560;28;1042;-83
2023/04/07 00:34:28;;;;;;;17.45;14.15;;;;;;;9.59;68.70;100811.66;688254;28;1125;-83
2023/04/07 00:34:49;;;;;;;17.73;14.50;;;;;;;9.57;68.54;100811.59;688221;28;1095;-83
2023/04/07 00:35:09;;;;;;;16.70;13.93;;;;;;;9.55;68.37;100800.25;685729;28;1089;-83
2023/04/07 00:35:30;;;;;;;17.60;14.32;;;;;;;9.51;68.77;100795.78;685691;28;1150;-83
2023/04/07 00:35:51;;;;;;;17.63;14.40;;;;;;;9.53;68.88;100799.31;690815;28;1401;-83
2023/04/07 00:36:11;;;;;;;18.02;14.35;;;;;;;9.59;68.83;100806.47;685648;28;1097;-83
2023/04/07 00:36:32;;;;;;;18.42;14.35;;;;;;;9.56;68.49;100803.72;682991;29;784;-82
2023/04/07 00:36:52;;;;;;;18.63;14.40;;;;;;;9.60;68.74;100803.88;685516;28;1093;-80
2023/04/07 00:37:13;;;;;;;19.48;14.98;;;;;;;9.54;68.52;100798.50;680367;28;1213;-83
2023/04/07 00:37:34;;;;;;;18.15;14.80;;;;;;;9.55;68.58;100801.97;688273;28;1225;-82
2023/04/07 00:37:55;;;;;;;18.73;14.52;;;;;;;9.53;68.73;100801.91;688142;28;1182;-83
2023/04/07 00:38:16;;;;;;;18.70;14.05;;;;;;;9.50;68.66;100793.09;685788;28;1086;-83
2023/04/07 00:38:37;;;;;;;18.98;13.90;;;;;;;9.56;68.81;100799.41;683102;29;800;-83
2023/04/07 00:38:57;;;;;;;19.00;14.30;;;;;;;9.55;68.62;100799.38;683010;28;1189;-83
2023/04/07 00:39:19;;;;;;;19.00;14.20;;;;;;;9.65;68.77;100810.97;685676;28;1031;-83
2023/04/07 00:39:40;;;;;;;18.75;14.43;;;;;;;9.57;68.74;100803.78;683093;29;1117;-83
2023/04/07 00:40:01;;;;;;;17.52;13.75;;;;;;;9.51;68.65;100792.31;682940;29;1220;-82
2023/04/07 00:40:22;;;;;;;17.70;13.70;;;;;;;9.48;68.31;100792.19;685596;28;1253;-83
2023/04/07 00:40:43;;;;;;;18.30;13.70;;;;;;;9.53;68.46;100796.69;682828;28;1316;-82
2023/04/07 00:41:03;;;;;;;18.80;14.13;;;;;;;9.53;68.58;100796.69;682988;29;1268;-83
2023/04/07 00:41:24;;;;;;;18.63;14.55;;;;;;;9.49;68.40;100784.44;683043;28;1309;-83
2023/04/07 00:41:45;;;;;;;18.35;14.35;;;;;;;9.49;68.67;100792.25;682888;29;1108;-83
2023/04/07 00:42:06;;;;;;;18.02;14.35;;;;;;;9.55;68.22;100796.75;680319;29;1976;-83
2023/04/07 00:42:27;;;;;;;17.58;14.23;;;;;;;9.50;68.95;100791.41;687422;28;986;-83
2023/04/07 00:42:48;;;;;;;18.60;14.63;;;;;;;9.54;68.34;100789.78;685435;28;1226;-83
2023/04/07 00:43:09;;;;;;;20.00;14.80;;;;;;;9.51;68.49;100798.38;682945;29;1288;-83
2023/04/07 00:43:29;;;;;;;20.30;14.85;;;;;;;9.51;68.40;100798.38;680410;29;1446;-83
2023/04/07 00:43:50;;;;;;;20.13;15.07;;;;;;;9.54;68.36;100798.50;680326;29;1104;-83
2023/04/07 00:44:12;;;;;;;18.88;15.10;;;;;;;9.63;68.52;100812.66;683041;29;1119;-83
2023/04/07 00:44:33;;;;;;;17.45;14.52;;;;;;;9.58;68.45;100799.44;680350;29;847;-82
2023/04/07 00:44:53;;;;;;;16.65;14.27;;;;;;;9.58;68.60;100799.44;680116;29;1150;-82
2023/04/07 00:45:14;;;;;;;17.23;13.98;;;;;;;9.54;68.48;100784.56;685564;28;1073;-83
2023/04/07 00:45:35;;;;;;;18.20;14.43;;;;;;;9.54;68.73;100793.28;685673;28;1193;-83
2023/04/07 00:45:56;;;;;;;18.35;14.80;;;;;;;9.62;68.19;100803.03;680277;29;1215;-83
2023/04/07 00:46:21;;;;;;;17.90;15.10;;;;;;;9.67;68.13;100809.31;677785;29;1353;-82
2023/04/07 00:46:41;;;;;;;17.75;14.60;;;;;;;9.63;68.50;100799.63;682818;29;1118;-82
2023/04/07 00:47:02;;;;;;;17.50;14.23;;;;;;;9.63;68.40;100802.25;682822;29;1205;-82
2023/04/07 00:47:23;;;;;;;17.23;14.43;;;;;;;9.58;68.31;100795.13;685687;28;833;-83
2023/04/07 00:47:44;;;;;;;17.45;14.63;;;;;;;9.60;68.66;100798.66;680251;29;1069;-83
2023/04/07 00:48:04;;;;;;;18.87;15.27;;;;;;;9.60;68.21;100788.25;683113;29;945;-83
2023/04/07 00:48:25;;;;;;;20.15;15.27;;;;;;;9.58;68.51;100789.94;682941;29;1213;-82
2023/04/07 00:48:46;;;;;;;20.13;15.32;;;;;;;9.57;68.27;100785.56;682751;28;1350;-83
2023/04/07 00:49:07;;;;;;;19.15;15.32;;;;;;;9.58;68.21;100787.31;685564;28;1215;-83
2023/04/07 00:49:27;;;;;;;18.45;15.45;;;;;;;9.65;68.49;100800.56;680365;29;1484;-83
2023/04/07 00:49:48;;;;;;;19.00;15.67;;;;;;;9.56;68.62;100780.28;685548;28;1185;-83
2023/04/07 00:50:09;;;;;;;20.30;15.65;;;;;;;9.56;68.41;100781.19;688342;28;1040;-83
2023/04/07 00:50:30;;;;;;;19.80;15.13;;;;;;;9.59;68.17;100791.69;680352;28;1442;-83
2023/04/07 00:50:50;;;;;;;19.95;15.13;;;;;;;9.63;68.40;100795.28;680263;29;1058;-83
2023/04/07 00:51:12;;;;;;;21.05;14.90;;;;;;;9.58;68.55;100783.81;677708;29;982;-82
2023/04/07 00:51:33;;;;;;;21.38;15.18;;;;;;;9.66;68.40;100803.22;680361;29;1319;-83
2023/04/07 00:51:55;;;;;;;20.50;14.50;;;;;;;9.60;68.50;100790.00;685445;28;1344;-83
2023/04/07 00:52:16;;;;;;;18.30;14.43;;;;;;;9.55;68.10;100782.03;682983;29;1336;-83
2023/04/07 00:52:37;;;;;;;18.05;14.55;;;;;;;9.65;68.61;100801.41;680333;29;1286;-83
2023/04/07 00:52:58;;;;;;;17.97;14.87;;;;;;;9.60;68.43;100796.06;677588;29;1119;-83
2023/04/07 00:53:19;;;;;;;18.52;15.30;;;;;;;9.63;68.59;100791.81;680422;29;1011;-83
2023/04/07 00:53:40;;;;;;;17.58;14.52;;;;;;;9.64;68.71;100798.78;680110;29;1950;-83
2023/04/07 00:54:01;;;;;;;17.73;14.20;;;;;;;9.55;68.53;100787.25;682813;29;1384;-82
2023/04/07 00:54:23;;;;;;;18.60;14.80;;;;;;;9.54;68.62;100782.88;680228;29;1109;-83
2023/04/07 00:54:45;;;;;;;20.42;15.57;;;;;;;9.60;68.68;100803.88;682768;29;1227;-84
2023/04/07 00:55:06;;;;;;;19.98;15.43;;;;;;;9.54;68.55;100785.47;680353;29;1031;-83
2023/04/07 00:55:27;;;;;;;19.60;15.32;;;;;;;9.58;68.66;100795.13;680367;29;1140;-83
2023/04/07 00:55:47;;;;;;;18.70;15.07;;;;;;;9.60;68.49;100798.66;680163;29;1181;-83
2023/04/07 00:56:08;;;;;;;17.73;14.90;;;;;;;9.52;68.49;100779.31;680111;29;1218;-83
2023/04/07 00:56:28;;;;;;;17.27;14.60;;;;;;;9.58;68.62;100792.53;683070;28;784;-83
2023/04/07 00:56:51;;;;;;;17.45;14.55;;;;;;;9.56;68.63;100791.59;685403;28;1131;-83
2023/04/07 00:57:11;;;;;;;17.25;14.30;;;;;;;9.55;68.66;100788.94;688240;28;1336;-82
2023/04/07 00:57:32;;;;;;;16.77;13.95;;;;;;;9.49;68.73;100780.91;685665;28;1386;-83
2023/04/07 00:57:53;;;;;;;17.33;13.80;;;;;;;9.59;68.72;100798.66;680237;29;1113;-83
2023/04/07 00:58:13;;;;;;;18.57;13.90;;;;;;;9.59;68.53;100803.84;682982;29;1148;-83
2023/04/07 00:58:36;;;;;;;18.80;14.00;;;;;;;9.54;68.99;100793.28;680382;29;839;-83
2023/04/07 00:58:56;;;;;;;17.17;14.00;;;;;;;9.57;68.63;100793.38;685496;28;1352;-83
2023/04/07 00:59:18;;;;;;;17.27;14.70;;;;;;;9.47;68.66;100780.91;682863;29;935;-83
2023/04/07 00:59:39;;;;;;;17.38;14.60;;;;;;;9.59;68.66;100796.91;682798;29;1186;-83
2023/04/07 00:59:59;;;;;;;17.23;14.43;;;;;;;9.50;69.13;100791.41;682809;28;1265;-83
2023/04/07 01:00:20;;;;;;;17.20;14.07;;;;;;;9.49;68.76;100789.63;682937;29;1142;-82
2023/04/07 01:01:09;;;;;;;17.02;14.18;;;;;;;9.59;68.88;100802.13;685420;28;1111;-83
2023/04/07 01:01:38;;;;;;;17.23;14.15;;;;;;;9.54;68.91;100787.19;681857;28;1150;-83
2023/04/07 01:02:10;;;;;;;17.17;14.18;;;;;;;9.50;68.66;100775.78;682917;29;1070;-83
2023/04/07 01:02:45;;;;;;;18.52;14.45;;;;;;;9.64;68.94;100801.41;682989;29;875;-83
2023/04/07 01:03:12;;;;;;;17.13;14.30;;;;;;;9.58;68.55;100789.94;682920;29;1025;-83
2023/04/07 01:03:45;;;;;;;18.63;14.60;;;;;;;9.66;68.77;100798.00;685628;28;1128;-83
2023/04/07 01:04:19;;;;;;;20.55;15.13;;;;;;;9.62;68.62;100784.81;685603;28;1185;-83
2023/04/07 01:04:49;;;;;;;19.42;14.73;;;;;;;9.69;68.50;100797.19;682809;29;1137;-82
2023/04/07 01:05:24;;;;;;;18.75;14.60;;;;;;;9.65;68.66;100788.41;688173;28;2009;-83
2023/04/07 01:05:59;;;;;;;17.83;14.52;;;;;;;9.70;68.76;100793.75;682802;29;1221;-83
2023/04/07 01:06:25;;;;;;;18.10;14.70;;;;;;;9.64;68.32;100784.03;680246;29;1114;-83
2023/04/07 01:06:50;;;;;;;17.70;14.57;;;;;;;9.72;68.77;100795.56;685236;28;1318;-84
2023/04/07 01:07:22;;;;;;;18.30;14.50;;;;;;;9.72;68.78;100797.31;682849;29;1352;-83
2023/04/07 01:08:18;;;;;;;18.33;14.70;;;;;;;9.72;68.54;100787.75;680097;29;1106;-83
2023/04/07 01:08:49;;;;;;;18.20;14.60;;;;;;;9.74;68.62;100793.03;682847;29;1125;-83
2023/04/07 01:09:17;;;;;;;17.35;14.48;;;;;;;9.67;68.62;100783.25;682869;29;1174;-83
2023/04/07 01:09:56;;;;;;;17.55;14.32;;;;;;;9.67;68.62;100778.03;682966;29;1395;-82
2023/04/07 01:10:26;;;;;;;18.30;14.43;;;;;;;9.67;68.35;100783.25;682803;29;1521;-83
2023/04/07 01:11:02;;;;;;;18.50;14.40;;;;;;;9.75;68.36;100797.41;682655;29;1888;-83
2023/04/07 01:11:35;;;;;;;17.70;13.85;;;;;;;9.66;68.56;100781.47;685589;28;1240;-83
2023/04/07 01:12:25;;;;;;;16.92;13.80;;;;;;;9.64;68.63;100775.34;685359;28;1205;-83
2023/04/07 01:13:04;;;;;;;16.63;13.88;;;;;;;9.73;68.60;100791.25;682676;29;952;-83
2023/04/07 01:13:35;;;;;;;16.73;13.50;;;;;;;9.66;68.60;100782.38;688268;28;881;-83
2023/04/07 01:14:05;;;;;;;17.40;14.18;;;;;;;9.66;68.38;100781.47;687992;28;1118;-82
2023/04/07 01:14:37;;;;;;;17.35;14.20;;;;;;;9.66;68.58;100786.69;688082;28;1359;-83
2023/04/07 01:15:11;;;;;;;17.75;14.30;;;;;;;9.60;68.55;100772.63;680156;29;1337;-83
2023/04/07 01:15:38;;;;;;;16.65;14.13;;;;;;;9.59;68.84;100780.41;683004;29;808;-83
2023/04/07 01:16:04;;;;;;;17.88;14.30;;;;;;;9.56;68.90;100775.06;680127;29;943;-83
2023/04/07 01:16:33;;;;;;;18.33;14.30;;;;;;;9.56;68.73;100775.97;680220;29;1258;-84
2023/04/07 01:16:56;;;;;;;17.00;14.00;;;;;;;9.57;68.68;100777.75;679909;29;1115;-83
2023/04/07 01:17:20;;;;;;;17.48;14.27;;;;;;;9.54;68.92;100777.66;682888;28;1246;-83
2023/04/07 01:17:49;;;;;;;18.73;14.13;;;;;;;9.56;68.58;100777.69;680086;29;1313;-83
2023/04/07 01:18:19;;;;;;;18.13;13.98;;;;;;;9.55;68.77;100773.31;682765;29;1254;-83
2023/04/07 01:18:43;;;;;;;16.65;13.70;;;;;;;9.66;68.56;100797.09;685453;28;1975;-83
2023/04/07 01:19:13;;;;;;;17.30;14.05;;;;;;;9.66;68.71;100789.28;685523;28;1034;-83
2023/04/07 01:19:51;;;;;;;17.67;14.13;;;;;;;9.66;68.89;100787.59;685631;28;855;-83
2023/04/07 01:20:16;;;;;;;18.00;14.10;;;;;;;9.58;68.91;100779.50;685521;28;1123;-83
2023/04/07 01:20:38;;;;;;;19.88;14.80;;;;;;;9.69;68.92;100786.78;680392;29;805;-83
2023/04/07 01:21:08;;;;;;;20.70;15.38;;;;;;;9.66;68.73;100776.25;685503;28;1352;-83
2023/04/07 01:21:33;;;;;;;21.77;15.45;;;;;;;9.71;68.84;100790.34;682953;29;1445;-83
2023/04/07 01:21:57;;;;;;;20.63;15.18;;;;;;;9.61;68.82;100776.13;682707;28;1098;-83
2023/04/07 01:22:25;;;;;;;18.55;15.07;;;;;;;9.70;68.86;100785.94;680271;29;1154;-84
2023/04/07 01:22:52;;;;;;;17.38;14.63;;;;;;;9.66;68.78;100774.56;680135;29;1076;-83
2023/04/07 01:23:22;;;;;;;18.17;14.75;;;;;;;9.72;68.60;100786.88;680229;29;1327;-83
2023/04/07 01:24:18;;;;;;;19.27;14.82;;;;;;;9.73;68.71;100784.31;682748;29;1202;-83
2023/04/07 01:25:32;;;;;;;19.02;14.85;;;;;;;9.75;68.85;100788.72;674855;29;1210;-83
2023/04/07 01:26:03;;;;;;;17.92;14.00;;;;;;;9.75;68.76;100783.50;671782;29;1214;-83
2023/04/07 01:26:32;;;;;;;17.83;14.20;;;;;;;9.75;68.70;100783.50;672543;29;1229;-83
2023/04/07 01:27:04;;;;;;;18.23;14.52;;;;;;;9.73;68.56;100783.44;669421;29;1085;-84
2023/04/07 01:27:49;;;;;;;19.15;14.80;;;;;;;9.74;68.60;100782.59;670944;29;1212;-83
2023/04/07 01:28:18;;;;;;;17.02;14.48;;;;;;;9.74;68.57;100787.81;672256;29;1164;-83
2023/04/07 01:28:49;;;;;;;17.48;14.68;;;;;;;9.67;68.87;100767.59;680125;28;1046;-83
2023/04/07 01:29:40;;;;;;;17.80;14.48;;;;;;;9.77;68.70;100782.69;685465;28;1087;-83
2023/04/07 01:30:02;;;;;;;17.10;14.30;;;;;;;9.77;68.72;100780.09;683974;28;854;-83
2023/04/07 01:30:27;;;;;;;17.73;14.20;;;;;;;9.76;68.54;100778.31;680332;29;874;-83
2023/04/07 01:30:50;;;;;;;17.60;14.15;;;;;;;9.74;68.57;100772.19;685336;28;1472;-83
2023/04/07 01:31:14;;;;;;;18.10;14.48;;;;;;;9.77;68.89;100782.69;682813;29;1174;-83
2023/04/07 01:31:38;;;;;;;18.33;14.25;;;;;;;9.69;68.69;100760.72;680239;29;1359;-84
2023/04/07 01:32:01;;;;;;;18.55;14.70;;;;;;;9.78;68.75;100780.97;682718;29;1250;-83
2023/04/07 01:32:23;;;;;;;19.27;14.73;;;;;;;9.73;68.40;100775.63;682842;29;1122;-83
2023/04/07 01:32:49;;;;;;;18.80;14.70;;;;;;;9.71;68.85;100769.50;682695;29;993;-83
2023/04/07 01:33:13;;;;;;;18.42;14.70;;;;;;;9.68;68.61;100764.16;680313;29;1116;-83
2023/04/07 01:33:34;;;;;;;19.05;14.90;;;;;;;9.73;68.83;100773.03;682884;29;1988;-83
2023/04/07 01:33:58;;;;;;;17.90;14.50;;;;;;;9.73;68.60;100778.22;682777;29;1172;-84
2023/04/07 01:34:19;;;;;;;17.42;14.27;;;;;;;9.73;68.44;100780.84;680214;28;1333;-83
2023/04/07 01:34:40;;;;;;;17.83;14.65;;;;;;;9.75;68.89;100776.56;682875;28;1062;-83
2023/04/07 01:35:03;;;;;;;17.50;14.23;;;;;;;9.64;68.58;100767.53;685440;28;1123;-83
2023/04/07 01:35:28;;;;;;;18.05;14.63;;;;;;;9.71;68.84;100777.31;690889;28;900;-83
2023/04/07 01:35:50;;;;;;;18.33;14.75;;;;;;;9.69;68.80;100781.56;690735;28;1119;-83
2023/04/07 01:36:12;;;;;;;18.40;14.52;;;;;;;9.62;68.65;100763.97;688167;28;1209;-84
2023/04/07 01:36:33;;;;;;;17.58;13.98;;;;;;;9.68;68.77;100779.78;682935;29;847;-84
2023/04/07 01:36:56;;;;;;;17.83;13.68;;;;;;;9.62;69.15;100764.84;677133;29;1399;-83
2023/04/07 01:37:17;;;;;;;18.25;13.98;;;;;;;9.62;68.83;100761.34;682961;29;1100;-83
2023/04/07 01:37:38;;;;;;;18.42;14.25;;;;;;;9.64;68.98;100759.72;682857;28;1298;-83
2023/04/07 01:38:00;;;;;;;18.73;14.55;;;;;;;9.67;68.97;100767.59;682628;29;1275;-83
2023/04/07 01:38:21;;;;;;;17.77;14.43;;;;;;;9.71;68.65;100769.50;680208;29;1101;-84
2023/04/07 01:38:43;;;;;;;18.27;14.85;;;;;;;9.62;68.98;100758.75;680122;29;1311;-84
2023/04/07 01:39:06;;;;;;;18.35;14.57;;;;;;;9.63;69.23;100758.81;685435;28;1243;-84
2023/04/07 01:39:27;;;;;;;16.55;13.77;;;;;;;9.69;68.82;100772.03;685700;28;795;-83
2023/04/07 01:39:47;;;;;;;16.13;13.18;;;;;;;9.59;68.97;100762.16;687981;28;1393;-83
2023/04/07 01:40:09;;;;;;;15.70;13.03;;;;;;;9.72;68.97;100771.25;685547;28;1280;-84
2023/04/07 01:40:32;;;;;;;17.20;13.80;;;;;;;9.72;69.05;100774.72;688226;28;1128;-83
2023/04/07 01:40:55;;;;;;;16.90;13.70;;;;;;;9.72;69.07;100773.84;685349;28;1590;-84
2023/04/07 01:41:18;;;;;;;17.38;14.07;;;;;;;9.66;68.73;100766.75;680273;29;983;-83
2023/04/07 01:41:40;;;;;;;18.02;14.40;;;;;;;9.73;68.73;100767.81;680171;29;1275;-83
2023/04/07 01:42:05;;;;;;;18.75;14.80;;;;;;;9.68;68.79;100753.75;682807;29;1277;-84
2023/04/07 01:42:26;;;;;;;18.52;14.50;;;;;;;9.65;68.44;100758.88;682968;29;760;-84
2023/04/07 01:42:49;;;;;;;18.77;14.55;;;;;;;9.64;68.77;100752.75;682589;29;1478;-83
2023/04/07 01:43:10;;;;;;;18.17;14.20;;;;;;;9.72;68.90;100771.25;680183;29;1013;-83
2023/04/07 01:43:31;;;;;;;18.45;14.50;;;;;;;9.69;68.88;100761.63;682770;28;1213;-83
2023/04/07 01:43:53;;;;;;;18.40;13.80;;;;;;;9.66;68.71;100758.94;680019;29;1160;-83
2023/04/07 01:44:15;;;;;;;17.92;13.48;;;;;;;9.73;68.78;100776.50;677646;29;990;-83
2023/04/07 01:44:37;;;;;;;18.00;14.13;;;;;;;9.70;68.67;100765.97;685557;28;1424;-83
2023/04/07 01:44:59;;;;;;;17.25;14.27;;;;;;;9.73;68.64;100770.41;688063;28;1305;-83
2023/04/07 01:45:21;;;;;;;16.58;13.75;;;;;;;9.67;68.79;100760.69;688247;28;1191;-84
2023/04/07 01:45:42;;;;;;;15.35;13.23;;;;;;;9.74;68.81;100780.00;685488;28;1089;-84
2023/04/07 01:46:04;;;;;;;16.55;13.73;;;;;;;9.68;68.84;100764.16;685484;28;1194;-84
2023/04/07 01:46:24;;;;;;;16.70;13.90;;;;;;;9.72;68.96;100773.84;677594;29;1258;-84
2023/04/07 01:46:46;;;;;;;16.80;13.68;;;;;;;9.74;68.86;100772.19;679817;29;1155;-84
2023/04/07 01:47:07;;;;;;;17.05;13.80;;;;;;;9.69;68.65;100763.31;682803;29;1245;-84
2023/04/07 01:47:31;;;;;;;17.40;14.20;;;;;;;9.77;68.59;100774.00;682945;29;803;-83
2023/04/07 01:47:53;;;;;;;17.35;14.50;;;;;;;9.72;68.88;100766.03;679909;29;1283;-83
2023/04/07 01:48:14;;;;;;;16.98;14.43;;;;;;;9.67;68.58;100757.19;677632;29;1225;-83
2023/04/07 01:48:36;;;;;;;17.13;14.40;;;;;;;9.77;68.78;100774.88;680311;29;796;-83
2023/04/07 01:48:58;;;;;;;16.23;13.90;;;;;;;9.72;68.86;100771.25;679996;29;1390;-84
2023/04/07 01:49:20;;;;;;;17.95;14.20;;;;;;;9.77;68.60;100780.09;682739;29;1238;-83
2023/04/07 01:49:41;;;;;;;19.20;14.10;;;;;;;9.73;68.78;100767.81;677637;29;1176;-82
2023/04/07 01:50:04;;;;;;;19.05;14.30;;;;;;;9.69;68.77;100765.94;682755;29;1374;-83
2023/04/07 01:50:26;;;;;;;17.23;13.70;;;;;;;9.64;68.55;100762.31;685538;28;1215;-83